| time (UTC) | temp C | wind direction | speed KPH | gust KPH | rain 1hr cm | rain 24hr cm | rain mn cm | humidity % | barometer mb |
| 20260510055227 | 10 | 337 | 4.8 | 9.7 | 0.00 | 0.00 | 0.00 | 92 | 965.1 |
| 20260510054224 | 10 | 136 | 4.8 | 6.4 | 0.00 | 0.00 | 0.00 | 94 | 964.6 |
| 20260510053221 | 11 | 136 | 4.8 | 6.4 | 0.00 | 0.00 | 0.00 | 94 | 965.0 |
| 20260510052218 | 11 | 136 | 3.2 | 4.8 | 0.00 | 0.00 | 0.00 | 95 | 965.4 |
| 20260510051214 | 11 | 137 | 6.4 | 17.7 | 0.00 | 0.00 | 0.00 | 96 | 965.0 |
| 20260510050211 | 11 | 137 | 1.6 | 1.6 | 0.00 | 0.00 | 0.00 | 96 | 964.4 |
| 20260510045208 | 11 | 136 | 1.6 | 3.2 | 0.00 | 0.00 | 0.00 | 96 | 964.1 |
| 20260510044205 | 11 | 135 | 1.6 | 3.2 | 0.00 | 0.00 | 0.00 | 96 | 964.0 |
| 20260510043202 | 11 | 136 | 1.6 | 3.2 | 0.00 | 0.00 | 0.00 | 96 | 963.5 |
| 20260510042159 | 11 | 135 | 0.0 | 1.6 | 0.00 | 0.00 | 0.00 | 96 | 963.3 |
| 20260510041156 | 11 | 136 | 1.6 | 1.6 | 0.00 | 0.00 | 0.00 | 96 | 963.2 |
| 20260510040152 | 11 | 136 | 1.6 | 1.6 | 0.00 | 0.00 | 0.00 | 96 | 963.2 |
| 20260510035150 | 11 | 137 | 1.6 | 3.2 | 0.00 | 0.00 | 0.00 | 96 | 963.1 |
| 20260510034146 | 11 | 136 | 1.6 | 1.6 | 0.00 | 0.00 | 0.00 | 96 | 963.3 |
| 20260510033143 | 11 | 136 | 1.6 | 1.6 | 0.00 | 0.00 | 0.00 | 96 | 963.2 |
| 20260510032140 | 11 | 136 | 1.6 | 1.6 | 0.00 | 0.00 | 0.00 | 96 | 963.1 |
| 20260510031137 | 11 | 136 | 1.6 | 3.2 | 0.00 | 0.00 | 0.00 | 96 | 963.2 |
| 20260510030134 | 11 | 137 | 3.2 | 4.8 | 0.00 | 0.00 | 0.00 | 96 | 963.2 |
| 20260510025131 | 11 | 137 | 3.2 | 4.8 | 0.00 | 0.00 | 0.00 | 96 | 963.5 |
| 20260510024127 | 10 | 137 | 1.6 | 1.6 | 0.00 | 0.00 | 0.00 | 96 | 962.9 |
| 20260510023124 | 10 | 136 | 1.6 | 1.6 | 0.00 | 0.00 | 0.00 | 96 | 962.8 |
| 20260510022121 | 10 | 136 | 1.6 | 1.6 | 0.00 | 0.00 | 0.00 | 96 | 962.9 |
| 20260510021118 | 10 | 136 | 1.6 | 3.2 | 0.00 | 0.00 | 0.00 | 96 | 963.0 |
| 20260510020115 | 11 | 137 | 1.6 | 1.6 | 0.00 | 0.00 | 0.00 | 96 | 962.9 |
| 20260510015112 | 11 | 135 | 1.6 | 1.6 | 0.00 | 0.00 | 0.00 | 95 | 963.0 |
| 20260510014109 | 11 | 136 | 1.6 | 3.2 | 0.00 | 0.00 | 0.00 | 95 | 962.9 |
| 20260510013106 | 11 | 136 | 1.6 | 3.2 | 0.00 | 0.00 | 0.00 | 95 | 962.7 |
| 20260510012102 | 11 | 136 | 1.6 | 1.6 | 0.00 | 0.00 | 0.00 | 95 | 962.5 |
| 20260510011059 | 11 | 137 | 1.6 | 3.2 | 0.00 | 0.00 | 0.00 | 94 | 962.4 |
| 20260510010056 | 11 | 136 | 1.6 | 3.2 | 0.00 | 0.00 | 0.00 | 94 | 962.4 |
| 20260510005053 | 12 | 137 | 1.6 | 1.6 | 0.00 | 0.00 | 0.00 | 94 | 962.4 |
| 20260510004050 | 12 | 137 | 1.6 | 3.2 | 0.00 | 0.00 | 0.00 | 94 | 962.5 |
| 20260510003047 | 12 | 136 | 1.6 | 3.2 | 0.00 | 0.00 | 0.00 | 94 | 962.4 |
| 20260510002043 | 12 | 135 | 1.6 | 1.6 | 0.00 | 0.00 | 0.00 | 94 | 962.3 |
| 20260510001040 | 12 | 136 | 3.2 | 3.2 | 0.00 | 0.00 | 0.00 | 94 | 962.2 |
| 20260510000037 | 12 | 136 | 1.6 | 3.2 | 0.00 | 0.00 | 0.00 | 94 | 962.2 |
| 20260509235034 | 12 | 137 | 1.6 | 3.2 | 0.00 | 0.00 | 0.00 | 94 | 962.3 |
| 20260509234031 | 12 | 136 | 3.2 | 4.8 | 0.00 | 0.00 | 0.00 | 94 | 962.2 |
| 20260509233028 | 12 | 136 | 3.2 | 4.8 | 0.00 | 0.00 | 0.00 | 94 | 962.1 |
| 20260509232025 | 12 | 137 | 1.6 | 3.2 | 0.00 | 0.00 | 0.00 | 93 | 962.0 |
| 20260509231022 | 11 | 136 | 3.2 | 4.8 | 0.00 | 0.00 | 0.00 | 93 | 962.5 |
| 20260509230018 | 11 | 129 | 6.4 | 11.3 | 0.00 | 0.00 | 0.00 | 92 | 962.7 |
| 20260509225015 | 13 | 330 | 6.4 | 14.5 | 0.00 | 0.00 | 0.00 | 88 | 962.6 |
| 20260509224012 | 18 | 330 | 11.3 | 25.7 | 0.00 | 0.00 | 0.00 | 66 | 962.0 |
| 20260509223009 | 18 | 166 | 4.8 | 9.7 | 0.00 | 0.00 | 0.00 | 56 | 960.1 |
| 20260509222006 | 19 | 239 | 4.8 | 9.7 | 0.00 | 0.00 | 0.00 | 56 | 960.0 |
| 20260509221003 | 19 | 270 | 3.2 | 6.4 | 0.00 | 0.00 | 0.00 | 56 | 959.9 |
| 20260509220000 | 19 | 158 | 4.8 | 11.3 | 0.00 | 0.00 | 0.00 | 55 | 960.0 |
| 20260509214956 | 20 | 220 | 4.8 | 12.9 | 0.00 | 0.00 | 0.00 | 54 | 960.0 |
| 20260509213953 | 20 | 275 | 3.2 | 8.0 | 0.00 | 0.00 | 0.00 | 55 | 959.7 |
| 20260509212950 | 20 | 215 | 4.8 | 8.0 | 0.00 | 0.00 | 0.00 | 53 | 959.5 |
| 20260509211947 | 20 | 165 | 6.4 | 12.9 | 0.00 | 0.00 | 0.00 | 55 | 959.6 |
| 20260509210944 | 20 | 119 | 4.8 | 9.7 | 0.00 | 0.00 | 0.00 | 56 | 959.9 |
| 20260509205941 | 20 | 146 | 4.8 | 9.7 | 0.00 | 0.00 | 0.00 | 55 | 959.9 |
| 20260509204937 | 20 | 187 | 6.4 | 12.9 | 0.00 | 0.00 | 0.00 | 57 | 960.2 |
| 20260509203934 | 20 | 217 | 4.8 | 8.0 | 0.00 | 0.00 | 0.00 | 54 | 960.3 |
| 20260509202931 | 20 | 241 | 4.8 | 9.7 | 0.00 | 0.00 | 0.00 | 53 | 960.4 |
| 20260509201928 | 20 | 145 | 3.2 | 6.4 | 0.00 | 0.00 | 0.00 | 56 | 960.6 |
| 20260509200925 | 20 | 242 | 3.2 | 6.4 | 0.00 | 0.00 | 0.00 | 57 | 960.7 |
| 20260509195922 | 20 | 227 | 6.4 | 9.7 | 0.00 | 0.00 | 0.00 | 57 | 960.8 |
| 20260509194919 | 20 | 268 | 6.4 | 12.9 | 0.00 | 0.00 | 0.00 | 56 | 960.7 |
| 20260509193916 | 20 | 139 | 9.7 | 19.3 | 0.00 | 0.00 | 0.00 | 57 | 960.7 |
| 20260509192913 | 20 | 161 | 8.0 | 16.1 | 0.00 | 0.00 | 0.00 | 57 | 961.3 |
| 20260509191909 | 19 | 352 | 8.0 | 14.5 | 0.00 | 0.00 | 0.00 | 57 | 961.4 |
| 20260509190906 | 19 | 162 | 4.8 | 17.7 | 0.00 | 0.00 | 0.00 | 58 | 961.6 |
| 20260509185903 | 19 | 223 | 4.8 | 11.3 | 0.00 | 0.00 | 0.00 | 56 | 961.6 |
| 20260509184900 | 18 | 138 | 4.8 | 11.3 | 0.00 | 0.00 | 0.00 | 57 | 961.8 |
| 20260509183857 | 19 | 139 | 6.4 | 14.5 | 0.00 | 0.00 | 0.00 | 56 | 961.8 |
| 20260509182853 | 19 | 158 | 6.4 | 12.9 | 0.00 | 0.00 | 0.00 | 57 | 961.6 |
| 20260509181850 | 20 | 302 | 3.2 | 9.7 | 0.00 | 0.00 | 0.00 | 57 | 961.6 |
| 20260509180847 | 20 | 239 | 4.8 | 11.3 | 0.00 | 0.00 | 0.00 | 56 | 961.7 |
| 20260509175844 | 19 | 194 | 6.4 | 12.9 | 0.00 | 0.00 | 0.00 | 56 | 961.8 |
| 20260509174841 | 19 | 146 | 8.0 | 12.9 | 0.00 | 0.00 | 0.00 | 60 | 961.7 |
| 20260509173838 | 19 | 239 | 4.8 | 11.3 | 0.00 | 0.00 | 0.00 | 59 | 961.9 |
| 20260509172835 | 18 | 152 | 3.2 | 8.0 | 0.00 | 0.00 | 0.00 | 64 | 961.9 |
| 20260509171832 | 18 | 134 | 9.7 | 17.7 | 0.00 | 0.00 | 0.00 | 62 | 961.9 |
| 20260509170828 | 18 | 156 | 6.4 | 12.9 | 0.00 | 0.00 | 0.00 | 61 | 962.1 |
| 20260509165825 | 18 | 262 | 3.2 | 8.0 | 0.00 | 0.00 | 0.00 | 62 | 962.2 |
| 20260509164822 | 17 | 312 | 3.2 | 8.0 | 0.00 | 0.00 | 0.00 | 66 | 962.2 |
| 20260509163819 | 17 | 118 | 4.8 | 8.0 | 0.00 | 0.00 | 0.00 | 66 | 962.1 |
| 20260509162816 | 17 | 162 | 3.2 | 8.0 | 0.00 | 0.00 | 0.00 | 64 | 962.5 |
| 20260509161813 | 17 | 223 | 6.4 | 9.7 | 0.00 | 0.00 | 0.00 | 66 | 962.8 |
| 20260509160810 | 16 | 293 | 6.4 | 11.3 | 0.00 | 0.00 | 0.00 | 67 | 963.0 |
| 20260509155806 | 16 | 9 | 3.2 | 8.0 | 0.00 | 0.00 | 0.00 | 69 | 962.9 |
| 20260509154803 | 16 | 160 | 3.2 | 4.8 | 0.00 | 0.00 | 0.00 | 73 | 963.1 |
| 20260509153800 | 15 | 352 | 3.2 | 9.7 | 0.00 | 0.00 | 0.00 | 75 | 962.9 |
| 20260509152757 | 15 | 203 | 4.8 | 9.7 | 0.00 | 0.00 | 0.00 | 72 | 962.8 |
| 20260509151754 | 15 | 198 | 1.6 | 6.4 | 0.00 | 0.00 | 0.00 | 78 | 962.6 |
| 20260509150751 | 15 | 256 | 3.2 | 6.4 | 0.00 | 0.00 | 0.00 | 79 | 962.6 |
| 20260509145747 | 14 | 238 | 3.2 | 4.8 | 0.00 | 0.00 | 0.00 | 81 | 962.6 |
| 20260509144744 | 14 | 311 | 3.2 | 4.8 | 0.00 | 0.00 | 0.00 | 86 | 962.5 |
| 20260509143741 | 13 | 167 | 3.2 | 3.2 | 0.00 | 0.00 | 0.00 | 86 | 962.5 |
| 20260509142738 | 13 | 162 | 1.6 | 4.8 | 0.00 | 0.00 | 0.00 | 86 | 962.5 |
| 20260509141735 | 13 | 148 | 4.8 | 8.0 | 0.00 | 0.00 | 0.00 | 89 | 962.5 |
| 20260509140732 | 12 | 118 | 1.6 | 1.6 | 0.00 | 0.00 | 0.00 | 91 | 962.5 |
| 20260509135729 | 12 | 200 | 1.6 | 1.6 | 0.00 | 0.00 | 0.00 | 92 | 962.5 |
| 20260509134726 | 12 | 150 | 4.8 | 8.0 | 0.00 | 0.00 | 0.00 | 93 | 962.5 |
| 20260509133722 | 12 | 208 | 1.6 | 1.6 | 0.00 | 0.00 | 0.00 | 96 | 962.5 |
| 20260509132719 | 11 | 173 | 1.6 | 3.2 | 0.00 | 0.00 | 0.00 | 97 | 962.4 |
| 20260509131716 | 11 | 154 | 1.6 | 3.2 | 0.00 | 0.00 | 0.00 | 97 | 962.5 |
| 20260509130713 | 11 | 99 | 0.0 | 1.6 | 0.00 | 0.00 | 0.00 | 97 | 962.5 |
| 20260509125710 | 11 | 256 | 0.0 | 0.0 | 0.00 | 0.00 | 0.00 | 97 | 962.6 |
| 20260509124707 | 11 | 114 | 1.6 | 3.2 | 0.00 | 0.00 | 0.00 | 97 | 962.6 |
| 20260509123704 | 11 | 164 | 3.2 | 4.8 | 0.00 | 0.00 | 0.00 | 97 | 962.7 |
| 20260509122701 | 11 | 233 | 0.0 | 0.0 | 0.00 | 0.00 | 0.00 | 97 | 962.8 |
| 20260509121657 | 11 | 165 | 3.2 | 3.2 | 0.00 | 0.00 | 0.00 | 97 | 962.8 |
| 20260509120654 | 11 | 142 | 3.2 | 3.2 | 0.00 | 0.00 | 0.00 | 97 | 962.9 |
| 20260509115651 | 11 | 214 | 1.6 | 3.2 | 0.00 | 0.00 | 0.00 | 97 | 962.9 |
| 20260509114648 | 10 | 104 | 0.0 | 1.6 | 0.00 | 0.00 | 0.00 | 97 | 962.9 |
| 20260509113645 | 10 | 134 | 1.6 | 3.2 | 0.00 | 0.00 | 0.00 | 97 | 962.9 |
| 20260509112642 | 10 | 168 | 1.6 | 3.2 | 0.00 | 0.00 | 0.00 | 97 | 962.8 |
| 20260509111639 | 10 | 170 | 1.6 | 3.2 | 0.00 | 0.00 | 0.00 | 97 | 962.7 |
| 20260509110635 | 10 | 166 | 1.6 | 3.2 | 0.00 | 0.00 | 0.00 | 97 | 962.6 |
| 20260509105632 | 10 | 132 | 3.2 | 6.4 | 0.00 | 0.00 | 0.00 | 97 | 962.6 |
| 20260509104629 | 10 | 104 | 1.6 | 3.2 | 0.00 | 0.00 | 0.00 | 97 | 962.6 |
| 20260509103626 | 10 | 152 | 1.6 | 1.6 | 0.00 | 0.00 | 0.00 | 97 | 962.6 |
| 20260509102623 | 10 | 153 | 3.2 | 3.2 | 0.00 | 0.00 | 0.00 | 97 | 962.7 |
| 20260509101620 | 10 | 137 | 3.2 | 4.8 | 0.00 | 0.00 | 0.00 | 97 | 962.7 |
| 20260509100616 | 10 | 0 | 0.0 | 0.0 | 0.00 | 0.00 | 0.00 | 97 | 962.7 |
| 20260509095613 | 10 | 151 | 1.6 | 3.2 | 0.00 | 0.00 | 0.00 | 97 | 962.7 |
| 20260509094610 | 10 | 210 | 1.6 | 3.2 | 0.00 | 0.00 | 0.00 | 97 | 962.7 |
| 20260509093607 | 10 | 256 | 0.0 | 0.0 | 0.00 | 0.00 | 0.00 | 97 | 962.8 |
| 20260509092604 | 10 | 152 | 1.6 | 3.2 | 0.00 | 0.00 | 0.00 | 97 | 962.9 |
| 20260509091601 | 10 | 143 | 1.6 | 1.6 | 0.00 | 0.00 | 0.00 | 97 | 963.0 |
| 20260509090558 | 10 | 212 | 1.6 | 1.6 | 0.00 | 0.00 | 0.00 | 97 | 963.1 |
| 20260509085555 | 10 | 160 | 1.6 | 3.2 | 0.00 | 0.00 | 0.00 | 97 | 963.1 |
| 20260509084552 | 10 | 145 | 1.6 | 4.8 | 0.00 | 0.00 | 0.00 | 97 | 963.2 |
| 20260509083548 | 10 | 311 | 1.6 | 3.2 | 0.00 | 0.00 | 0.00 | 97 | 963.3 |
| 20260509082545 | 10 | 167 | 1.6 | 1.6 | 0.00 | 0.00 | 0.00 | 97 | 963.3 |
| 20260509081542 | 10 | 139 | 3.2 | 3.2 | 0.00 | 0.00 | 0.00 | 97 | 963.3 |
| 20260509080539 | 10 | 147 | 4.8 | 6.4 | 0.00 | 0.00 | 0.00 | 97 | 963.2 |
| 20260509075536 | 10 | 152 | 3.2 | 4.8 | 0.00 | 0.00 | 0.00 | 97 | 963.2 |
| 20260509074533 | 10 | 200 | 1.6 | 3.2 | 0.00 | 0.00 | 0.00 | 97 | 963.2 |
| 20260509073530 | 10 | 138 | 1.6 | 3.2 | 0.00 | 0.00 | 0.00 | 97 | 963.2 |
| 20260509072527 | 10 | 133 | 1.6 | 3.2 | 0.00 | 0.00 | 0.00 | 97 | 963.4 |
| 20260509071524 | 10 | 106 | 1.6 | 1.6 | 0.00 | 0.00 | 0.00 | 97 | 963.5 |
| 20260509070520 | 10 | 148 | 3.2 | 4.8 | 0.00 | 0.00 | 0.00 | 97 | 963.5 |
| 20260509065517 | 10 | 115 | 3.2 | 4.8 | 0.00 | 0.00 | 0.00 | 97 | 963.5 |
| 20260509064514 | 10 | 191 | 1.6 | 1.6 | 0.00 | 0.00 | 0.00 | 97 | 963.6 |
| 20260509063511 | 10 | 230 | 3.2 | 4.8 | 0.00 | 0.00 | 0.00 | 97 | 963.6 |
| 20260509062509 | 10 | 144 | 1.6 | 3.2 | 0.00 | 0.00 | 0.00 | 97 | 963.7 |
| 20260509061505 | 10 | 171 | 1.6 | 3.2 | 0.00 | 0.00 | 0.00 | 97 | 963.9 |
| 20260509060502 | 10 | 132 | 1.6 | 1.6 | 0.00 | 0.00 | 0.00 | 96 | 964.0 |
| 20260509055459 | 10 | 161 | 1.6 | 3.2 | 0.00 | 0.00 | 0.00 | 96 | 964.1 |